createdAt,value
2018-04-16T00:01:26.965Z,7.5
2018-04-16T00:11:27.004Z,6.1
2018-04-16T00:21:25.801Z,5.8
2018-04-16T00:31:28.038Z,6.2
2018-04-16T00:41:31.755Z,6.1
2018-04-16T00:51:26.992Z,6.8
2018-04-16T01:01:28.330Z,6.1
2018-04-16T01:11:26.337Z,6.5
2018-04-16T01:21:26.364Z,6.9
2018-04-16T01:31:26.292Z,6.7
2018-04-16T01:41:26.674Z,6.9
2018-04-16T01:51:28.102Z,7.0
2018-04-16T02:01:27.283Z,7.3
2018-04-16T02:11:27.426Z,7.1
2018-04-16T02:21:27.088Z,7.0
2018-04-16T02:31:26.718Z,6.7
2018-04-16T02:41:28.473Z,6.8
2018-04-16T02:51:26.405Z,7.2
2018-04-16T03:01:26.131Z,7.6
2018-04-16T03:11:26.363Z,7.4
2018-04-16T03:21:27.760Z,7.2
2018-04-16T03:31:26.624Z,6.4
2018-04-16T03:41:32.332Z,7.0
2018-04-16T03:51:32.024Z,7.8
2018-04-16T04:01:25.805Z,7.8
2018-04-16T04:11:28.898Z,7.3
2018-04-16T04:21:26.825Z,7.7
2018-04-16T04:31:25.846Z,7.3
2018-04-16T04:41:27.001Z,7.9
2018-04-16T04:51:28.827Z,8.8
2018-04-16T05:01:28.911Z,9.2
2018-04-16T05:11:29.330Z,9.5
2018-04-16T05:21:28.890Z,9.3
2018-04-16T05:31:27.947Z,9.5
2018-04-16T05:41:31.351Z,8.7
2018-04-16T05:51:32.857Z,9.9
2018-04-16T06:01:27.028Z,9.1
2018-04-16T06:11:32.201Z,10.8
2018-04-16T06:21:32.672Z,10.6
2018-04-16T06:31:26.531Z,10.7
2018-04-16T06:41:31.019Z,11.4
2018-04-16T06:51:31.503Z,10.8
2018-04-16T07:01:30.914Z,11.6
2018-04-16T07:11:28.061Z,11.3
2018-04-16T07:21:27.044Z,12.1
2018-04-16T07:31:28.084Z,11.6
2018-04-16T07:41:27.101Z,11.6
2018-04-16T07:51:27.144Z,11.0
2018-04-16T08:01:26.186Z,10.9
2018-04-16T08:11:26.037Z,10.6
2018-04-16T08:21:27.922Z,11.6
2018-04-16T08:31:29.224Z,12.4
2018-04-16T08:41:31.009Z,12.0
2018-04-16T08:51:26.711Z,12.7
2018-04-16T09:01:26.492Z,12.4
2018-04-16T09:11:26.092Z,10.9
2018-04-16T09:21:31.878Z,10.2
2018-04-16T09:31:30.431Z,10.2
2018-04-16T09:41:31.706Z,13.9
2018-04-16T09:51:32.786Z,12.2
2018-04-16T10:01:31.262Z,11.1
2018-04-16T10:11:31.397Z,9.0
2018-04-16T10:21:31.853Z,7.2
2018-04-16T10:31:32.254Z,9.4
2018-04-16T10:41:30.881Z,9.2
2018-04-16T10:51:32.221Z,9.4
2018-04-16T11:01:31.925Z,9.7
2018-04-16T11:11:26.877Z,9.6
2018-04-16T11:21:27.375Z,8.1
2018-04-16T11:31:32.491Z,8.2
2018-04-16T11:41:30.897Z,8.2
2018-04-16T11:51:30.909Z,8.1
2018-04-16T12:01:26.629Z,7.9
2018-04-16T12:11:31.024Z,8.5
2018-04-16T12:21:31.847Z,7.8
2018-04-16T12:31:31.465Z,7.8
2018-04-16T12:41:31.676Z,7.4
2018-04-16T12:51:31.778Z,7.6
2018-04-16T13:01:33.154Z,7.6
2018-04-16T13:11:30.364Z,7.2
2018-04-16T13:21:31.363Z,7.2
2018-04-16T13:31:32.682Z,7.6
2018-04-16T13:41:31.541Z,6.8
2018-04-16T13:51:31.706Z,7.3
2018-04-16T14:01:31.036Z,6.9
2018-04-16T14:11:32.275Z,6.9
2018-04-16T14:21:31.357Z,6.7
2018-04-16T14:31:27.265Z,7.6
2018-04-16T14:41:26.719Z,7.6
2018-04-16T14:51:31.375Z,6.9
2018-04-16T15:01:27.917Z,6.3
2018-04-16T15:11:25.571Z,6.1
2018-04-16T15:21:26.417Z,6.1
2018-04-16T15:31:25.533Z,5.9
2018-04-16T15:41:31.202Z,5.6
2018-04-16T15:51:31.021Z,6.5
2018-04-16T16:01:25.741Z,5.9
2018-04-16T16:11:31.006Z,5.5
2018-04-16T16:21:31.053Z,5.0
2018-04-16T16:31:32.263Z,6.2
2018-04-16T16:41:33.073Z,5.8
2018-04-16T16:51:30.926Z,5.7
2018-04-16T17:01:33.053Z,6.0
2018-04-16T17:11:26.299Z,5.9
2018-04-16T17:21:30.738Z,6.9
2018-04-16T17:31:30.924Z,6.9
2018-04-16T17:41:32.560Z,6.9
2018-04-16T17:51:28.447Z,6.6
2018-04-16T18:01:32.541Z,6.9
2018-04-16T18:11:27.011Z,8.1
2018-04-16T18:21:25.409Z,7.3
2018-04-16T18:31:25.131Z,8.1
2018-04-16T18:41:26.910Z,8.1
2018-04-16T18:51:27.196Z,8.3
2018-04-16T19:01:31.665Z,8.0
2018-04-16T19:11:31.058Z,7.7
2018-04-16T19:21:26.783Z,8.1
2018-04-16T19:31:25.924Z,8.5
2018-04-16T19:41:28.282Z,8.9
2018-04-16T19:51:28.243Z,9.5
2018-04-16T20:01:25.065Z,10.8
2018-04-16T20:11:31.279Z,9.4
2018-04-16T20:21:31.858Z,8.2
2018-04-16T20:31:31.560Z,7.8
2018-04-16T20:41:43.459Z,8.8
2018-04-16T20:51:32.122Z,7.5
2018-04-16T21:01:30.834Z,8.3
2018-04-16T21:11:52.559Z,8.7
2018-04-16T21:21:32.001Z,7.6
2018-04-16T21:31:32.460Z,8.3
2018-04-16T21:41:32.140Z,8.4
2018-04-16T21:51:31.545Z,9.1
2018-04-16T22:01:31.053Z,9.5
2018-04-16T22:11:38.137Z,8.9
2018-04-16T22:21:32.221Z,7.9
2018-04-16T22:31:26.696Z,10.0
2018-04-16T22:41:31.878Z,9.4
2018-04-16T22:51:26.875Z,9.1
2018-04-16T23:01:32.225Z,9.3
2018-04-16T23:11:28.211Z,10.4
2018-04-16T23:21:26.119Z,10.0
2018-04-16T23:31:32.662Z,11.6
2018-04-16T23:41:31.691Z,12.1
2018-04-16T23:51:32.024Z,11.2
